Time;durP1;ratioP1;P1;durP2;ratioP2;P2;SDS_P1;SDS_P2;PMS_P1;PMS_P2;Temp;Humidity;BMP_temperature;BMP_pressure;BME280_temperature;BME280_humidity;BME280_pressure;Samples;Min_cycle;Max_cycle;Signal;HPM_P1;HPM_P2
2023/10/23 00:02:42;;;;;;;2.85;1.60;;;;;;;;;;10346217;28;20050;-68
2023/10/23 00:07:45;;;;;;;3.72;1.88;;;;;;;;;;10347522;28;20158;-68
2023/10/23 00:12:48;;;;;;;3.72;1.90;;;;;;;;;;10345811;28;20045;-67
2023/10/23 00:17:52;;;;;;;5.18;2.13;;;;;;;;;;10336829;28;20045;-71
2023/10/23 00:22:54;;;;;;;4.55;1.90;;;;;;;;;;10348023;28;20058;-72
2023/10/23 00:27:57;;;;;;;3.10;2.20;;;;;;;;;;10340857;28;20132;-69
2023/10/23 00:33:01;;;;;;;3.50;1.85;;;;;;;;;;10345161;28;20034;-70
2023/10/23 00:38:03;;;;;;;6.72;2.28;;;;;;;;;;10347200;28;20201;-70
2023/10/23 00:43:13;;;;;;;5.40;2.38;;;;;;;;;;10347898;28;20036;-68
2023/10/23 00:48:19;;;;;;;6.57;2.55;;;;;;;;;;10343133;28;20050;-68
2023/10/23 00:53:25;;;;;;;5.95;2.30;;;;;;;;;;10351619;28;20608;-69
2023/10/23 00:58:28;;;;;;;6.45;2.70;;;;;;;;;;10338571;28;20221;-70
2023/10/23 01:03:32;;;;;;;5.90;2.60;;;;;;;;;;10342185;28;20057;-69
2023/10/23 01:08:35;;;;;;;7.40;3.17;;;;;;;;;;10341979;28;20394;-70
2023/10/23 01:13:37;;;;;;;5.53;3.08;;;;;;;;;;10360522;28;20525;-70
2023/10/23 01:18:41;;;;;;;5.88;3.00;;;;;;;;;;10345310;28;20124;-69
2023/10/23 01:23:44;;;;;;;;;;;;;;;;;;10348550;28;20518;-68
2023/10/23 01:28:48;;;;;;;11.80;4.90;;;;;;;;;;10345208;28;19928;-70
2023/10/23 01:33:50;;;;;;;10.80;4.13;;;;;;;;;;10347220;28;20669;-70
2023/10/23 01:38:54;;;;;;;9.80;4.32;;;;;;;;;;10344808;28;20229;-69
2023/10/23 01:43:58;;;;;;;9.13;4.45;;;;;;;;;;10341172;28;20072;-69
2023/10/23 01:49:01;;;;;;;9.57;4.45;;;;;;;;;;10343981;28;20794;-69
2023/10/23 01:54:03;;;;;;;10.35;4.28;;;;;;;;;;10342438;28;20171;-69
2023/10/23 01:59:07;;;;;;;10.63;4.47;;;;;;;;;;10343541;28;20048;-69
2023/10/23 02:04:10;;;;;;;;;;;;;;;;;;10344054;28;20201;-69
2023/10/23 02:09:13;;;;;;;11.57;4.97;;;;;;;;;;10346456;28;19930;-69
2023/10/23 02:14:17;;;;;;;10.57;5.00;;;;;;;;;;10342533;28;20496;-71
2023/10/23 02:19:19;;;;;;;9.30;5.00;;;;;;;;;;10333412;28;20041;-70
2023/10/23 02:24:22;;;;;;;13.15;5.68;;;;;;;;;;10350267;28;20043;-71
2023/10/23 02:29:26;;;;;;;11.15;4.82;;;;;;;;;;10338329;28;20089;-70
2023/10/23 02:34:28;;;;;;;8.57;4.05;;;;;;;;;;10340452;28;20042;-70
2023/10/23 02:39:31;;;;;;;10.48;4.53;;;;;;;;;;10347766;28;20079;-72
2023/10/23 02:44:35;;;;;;;10.32;4.45;;;;;;;;;;10343351;28;20039;-70
2023/10/23 02:49:38;;;;;;;;;;;;;;;;;;10337921;28;20051;-69
2023/10/23 02:54:40;;;;;;;6.93;3.58;;;;;;;;;;10344539;28;19925;-71
2023/10/23 02:59:47;;;;;;;7.22;3.65;;;;;;;;;;10342168;28;20791;-71
2023/10/23 03:04:50;;;;;;;10.85;4.40;;;;;;;;;;10336867;28;20034;-69
2023/10/23 03:09:52;;;;;;;9.65;3.85;;;;;;;;;;10340161;28;20050;-69
2023/10/23 03:14:56;;;;;;;11.63;4.72;;;;;;;;;;10336085;28;20040;-69
2023/10/23 03:19:59;;;;;;;9.85;4.65;;;;;;;;;;10338213;28;20049;-68
2023/10/23 03:25:03;;;;;;;9.63;4.35;;;;;;;;;;10336059;28;20107;-69
2023/10/23 03:30:08;;;;;;;9.75;4.18;;;;;;;;;;10340298;28;20529;-69
2023/10/23 03:35:11;;;;;;;7.32;3.47;;;;;;;;;;10327675;28;20034;-69
2023/10/23 03:40:13;;;;;;;10.70;3.20;;;;;;;;;;10337061;28;20054;-69
2023/10/23 03:45:17;;;;;;;7.13;3.38;;;;;;;;;;10339120;28;20049;-69
2023/10/23 03:50:20;;;;;;;6.40;3.65;;;;;;;;;;10347520;28;20062;-70
2023/10/23 03:55:22;;;;;;;10.70;3.70;;;;;;;;;;10337394;28;20048;-70
2023/10/23 04:00:27;;;;;;;7.95;3.97;;;;;;;;;;10329911;28;20455;-70
2023/10/23 04:05:30;;;;;;;5.85;3.60;;;;;;;;;;10334896;28;20132;-69
2023/10/23 04:10:33;;;;;;;8.52;4.03;;;;;;;;;;10339896;28;20040;-71
2023/10/23 04:15:37;;;;;;;6.07;3.38;;;;;;;;;;10340480;28;20479;-69
2023/10/23 04:20:39;;;;;;;7.63;3.72;;;;;;;;;;10336777;28;20396;-69
2023/10/23 04:25:42;;;;;;;9.10;4.20;;;;;;;;;;10340617;28;20109;-69
2023/10/23 04:30:46;;;;;;;7.85;3.40;;;;;;;;;;10341251;28;20046;-69
2023/10/23 04:35:49;;;;;;;7.22;3.60;;;;;;;;;;10343106;28;20038;-69
2023/10/23 04:40:53;;;;;;;6.10;2.65;;;;;;;;;;10339803;28;20566;-69
2023/10/23 04:45:58;;;;;;;4.23;2.57;;;;;;;;;;10342124;28;20100;-69
2023/10/23 04:51:03;;;;;;;9.05;2.92;;;;;;;;;;10341041;28;20415;-70
2023/10/23 04:56:06;;;;;;;6.05;3.00;;;;;;;;;;10342981;28;20042;-71
2023/10/23 05:01:16;;;;;;;8.93;3.37;;;;;;;;;;10346956;28;20117;-70
2023/10/23 05:06:24;;;;;;;7.88;3.60;;;;;;;;;;10344389;28;20042;-71
2023/10/23 05:11:27;;;;;;;7.25;3.67;;;;;;;;;;10341439;28;20430;-69
2023/10/23 05:16:31;;;;;;;9.32;3.65;;;;;;;;;;10341959;28;20636;-68
2023/10/23 05:21:33;;;;;;;6.38;3.60;;;;;;;;;;10347919;28;20384;-69
2023/10/23 05:26:36;;;;;;;6.53;3.20;;;;;;;;;;10340818;28;20042;-68
2023/10/23 05:31:40;;;;;;;8.25;3.80;;;;;;;;;;10344921;28;20054;-68
2023/10/23 05:36:44;;;;;;;7.47;3.55;;;;;;;;;;10342332;28;20947;-70
2023/10/23 05:41:47;;;;;;;5.80;3.30;;;;;;;;;;10335877;28;20038;-68
2023/10/23 05:46:50;;;;;;;6.90;3.00;;;;;;;;;;10342182;28;20036;-69
2023/10/23 05:51:53;;;;;;;7.55;3.42;;;;;;;;;;10339273;28;20932;-68
2023/10/23 05:56:56;;;;;;;10.35;3.58;;;;;;;;;;10340864;28;20049;-70
2023/10/23 06:02:00;;;;;;;12.30;4.97;;;;;;;;;;10339135;28;20071;-72
2023/10/23 06:07:02;;;;;;;9.05;3.38;;;;;;;;;;10339689;28;20125;-69
2023/10/23 06:12:06;;;;;;;4.07;2.20;;;;;;;;;;10342928;28;20053;-72
2023/10/23 06:17:10;;;;;;;4.75;2.17;;;;;;;;;;10341172;28;20123;-68
2023/10/23 06:22:13;;;;;;;5.72;2.35;;;;;;;;;;10340641;28;20132;-68
2023/10/23 06:27:15;;;;;;;4.95;1.92;;;;;;;;;;10341687;28;20144;-70
2023/10/23 06:32:19;;;;;;;4.75;1.80;;;;;;;;;;10336569;28;20053;-69
2023/10/23 06:37:22;;;;;;;5.38;2.17;;;;;;;;;;10338292;28;20049;-69
2023/10/23 06:42:26;;;;;;;5.22;2.22;;;;;;;;;;10347580;28;20057;-70
2023/10/23 06:47:30;;;;;;;5.88;2.15;;;;;;;;;;10335785;28;20054;-69
2023/10/23 06:52:32;;;;;;;;;;;;;;;;;;10345814;28;20045;-69
2023/10/23 06:57:35;;;;;;;5.80;2.08;;;;;;;;;;10338787;28;19926;-69
2023/10/23 07:02:39;;;;;;;3.67;1.80;;;;;;;;;;10341537;28;20054;-69
2023/10/23 07:07:42;;;;;;;4.03;2.15;;;;;;;;;;10336469;28;20040;-74
2023/10/23 07:12:44;;;;;;;2.38;1.92;;;;;;;;;;10346637;28;20050;-69
2023/10/23 07:17:48;;;;;;;4.22;2.00;;;;;;;;;;10336632;28;20077;-70
2023/10/23 07:22:51;;;;;;;4.35;2.33;;;;;;;;;;10341205;28;20458;-70
2023/10/23 07:27:54;;;;;;;4.25;2.45;;;;;;;;;;10338620;28;20184;-70
2023/10/23 07:32:59;;;;;;;7.47;2.50;;;;;;;;;;10334429;28;20046;-70
2023/10/23 07:38:02;;;;;;;5.40;2.47;;;;;;;;;;10338999;28;20072;-70
2023/10/23 07:43:04;;;;;;;3.00;1.97;;;;;;;;;;10335457;28;20147;-70
2023/10/23 07:48:08;;;;;;;3.60;2.15;;;;;;;;;;10333904;28;20912;-71
2023/10/23 07:53:11;;;;;;;3.25;2.10;;;;;;;;;;10338132;28;20046;-70
2023/10/23 07:58:14;;;;;;;3.58;2.10;;;;;;;;;;10337158;28;20045;-70
2023/10/23 08:03:18;;;;;;;6.72;2.40;;;;;;;;;;10333582;28;20060;-71
2023/10/23 08:08:21;;;;;;;5.05;2.22;;;;;;;;;;10349359;28;21501;-70
2023/10/23 08:13:24;;;;;;;2.78;1.73;;;;;;;;;;10345115;28;20056;-71
2023/10/23 08:18:28;;;;;;;4.47;2.07;;;;;;;;;;10350706;28;20046;-70
2023/10/23 08:23:42;;;;;;;3.38;1.88;;;;;;;;;;10339316;28;20072;-71
2023/10/23 08:28:45;;;;;;;4.13;1.85;;;;;;;;;;10347709;28;20590;-70
2023/10/23 08:33:52;;;;;;;1.95;1.70;;;;;;;;;;10344034;28;20069;-69
2023/10/23 08:38:55;;;;;;;1.58;1.45;;;;;;;;;;10343251;28;20111;-69
2023/10/23 08:43:57;;;;;;;2.20;1.77;;;;;;;;;;10338370;28;20049;-69
2023/10/23 08:49:01;;;;;;;3.30;2.13;;;;;;;;;;10331292;28;20057;-70
2023/10/23 08:54:06;;;;;;;5.25;1.83;;;;;;;;;;10347978;28;20049;-70
2023/10/23 08:59:14;;;;;;;3.58;1.83;;;;;;;;;;10336358;28;20038;-71
2023/10/23 09:04:18;;;;;;;1.33;1.17;;;;;;;;;;10343045;28;20617;-70
2023/10/23 09:09:21;;;;;;;2.45;1.50;;;;;;;;;;10337085;28;20042;-71
2023/10/23 09:14:24;;;;;;;3.45;1.65;;;;;;;;;;10339473;28;20054;-70
2023/10/23 09:19:32;;;;;;;2.10;1.60;;;;;;;;;;10329500;28;20403;-72
2023/10/23 09:24:36;;;;;;;2.35;1.30;;;;;;;;;;10345145;28;20490;-70
2023/10/23 09:29:38;;;;;;;2.45;1.70;;;;;;;;;;10327345;28;20061;-69
2023/10/23 09:34:44;;;;;;;2.53;1.98;;;;;;;;;;10328568;28;20132;-75
2023/10/23 09:39:47;;;;;;;3.25;1.90;;;;;;;;;;10332643;28;20529;-70
2023/10/23 09:44:50;;;;;;;2.25;1.30;;;;;;;;;;10336262;28;20058;-70
2023/10/23 09:49:54;;;;;;;3.20;1.08;;;;;;;;;;10335573;28;20506;-71
2023/10/23 09:54:59;;;;;;;0.98;0.98;;;;;;;;;;10330680;28;20086;-71
2023/10/23 10:00:05;;;;;;;2.97;1.02;;;;;;;;;;10336532;28;20438;-69
2023/10/23 10:05:12;;;;;;;0.95;0.95;;;;;;;;;;10333178;28;20049;-71
2023/10/23 10:10:15;;;;;;;3.08;1.10;;;;;;;;;;10331006;28;20191;-70
2023/10/23 10:15:18;;;;;;;2.45;1.25;;;;;;;;;;10323723;28;20118;-70
2023/10/23 10:20:23;;;;;;;0.65;0.65;;;;;;;;;;10336958;28;20077;-69
2023/10/23 10:25:26;;;;;;;2.38;1.40;;;;;;;;;;10348781;28;20498;-70
2023/10/23 10:30:40;;;;;;;3.00;1.45;;;;;;;;;;10341956;28;20162;-70
2023/10/23 10:35:50;;;;;;;7.45;1.38;;;;;;;;;;10328049;28;20073;-72
2023/10/23 10:40:57;;;;;;;1.42;1.20;;;;;;;;;;10335176;28;20054;-71
2023/10/23 10:46:01;;;;;;;1.48;1.30;;;;;;;;;;10332123;28;20470;-70
2023/10/23 10:51:05;;;;;;;1.90;1.00;;;;;;;;;;10331899;28;20053;-70
2023/10/23 10:56:09;;;;;;;1.73;1.00;;;;;;;;;;10341206;28;20058;-70
2023/10/23 11:01:12;;;;;;;1.00;0.90;;;;;;;;;;10334702;28;20476;-69
2023/10/23 11:06:16;;;;;;;1.40;1.08;;;;;;;;;;10342208;28;20045;-70
2023/10/23 11:11:18;;;;;;;3.15;1.35;;;;;;;;;;10333473;28;20048;-70
2023/10/23 11:16:21;;;;;;;4.60;1.20;;;;;;;;;;10335130;28;20045;-70
2023/10/23 11:21:25;;;;;;;1.00;0.90;;;;;;;;;;10335768;28;20078;-68
2023/10/23 11:26:28;;;;;;;2.50;1.30;;;;;;;;;;10340951;28;20185;-71
2023/10/23 11:31:31;;;;;;;1.40;1.07;;;;;;;;;;10338956;28;20096;-70
2023/10/23 11:36:35;;;;;;;2.75;1.38;;;;;;;;;;10338300;28;20501;-69
2023/10/23 11:41:37;;;;;;;1.80;1.10;;;;;;;;;;10345229;28;20038;-71
2023/10/23 11:46:40;;;;;;;2.57;1.10;;;;;;;;;;10346325;28;20042;-70
2023/10/23 11:51:44;;;;;;;2.70;1.00;;;;;;;;;;10347913;28;20057;-70
2023/10/23 11:56:47;;;;;;;3.40;1.10;;;;;;;;;;10345090;28;20037;-69
2023/10/23 12:01:50;;;;;;;1.63;0.82;;;;;;;;;;10341888;28;20046;-69
2023/10/23 12:06:54;;;;;;;1.92;1.00;;;;;;;;;;10344607;28;20108;-70
2023/10/23 12:11:57;;;;;;;1.45;1.27;;;;;;;;;;10344720;28;20049;-70
2023/10/23 12:16:59;;;;;;;2.00;1.03;;;;;;;;;;10347036;28;20034;-70
2023/10/23 12:22:04;;;;;;;1.95;1.25;;;;;;;;;;10350537;28;20129;-69
2023/10/23 12:27:07;;;;;;;1.33;1.00;;;;;;;;;;10351400;28;20038;-70
2023/10/23 12:32:12;;;;;;;3.27;1.40;;;;;;;;;;10346235;28;20133;-71
2023/10/23 12:37:37;;;;;;;4.30;1.30;;;;;;;;;;10339691;28;20515;-69
2023/10/23 12:42:40;;;;;;;1.85;1.30;;;;;;;;;;10349224;28;20046;-70
2023/10/23 12:47:43;;;;;;;;;;;;;;;;;;10349095;28;20129;-70
2023/10/23 12:52:47;;;;;;;2.35;1.35;;;;;;;;;;10337198;28;20457;-70
2023/10/23 12:57:51;;;;;;;2.60;1.85;;;;;;;;;;10342836;28;20451;-70
2023/10/23 13:02:53;;;;;;;3.97;1.30;;;;;;;;;;10343485;28;20073;-72
2023/10/23 13:07:57;;;;;;;2.70;1.48;;;;;;;;;;10346291;28;20046;-69
2023/10/23 13:13:00;;;;;;;2.10;1.30;;;;;;;;;;10339385;28;20046;-69
2023/10/23 13:18:03;;;;;;;2.13;1.40;;;;;;;;;;10341508;28;20054;-69
2023/10/23 13:23:07;;;;;;;1.38;1.10;;;;;;;;;;10343416;28;20062;-72
2023/10/23 13:28:10;;;;;;;2.45;1.40;;;;;;;;;;10345161;28;20124;-66
2023/10/23 13:33:12;;;;;;;1.45;1.30;;;;;;;;;;10339489;28;20519;-70
2023/10/23 13:38:16;;;;;;;4.30;1.50;;;;;;;;;;10339162;28;20072;-68
2023/10/23 13:43:19;;;;;;;2.25;1.27;;;;;;;;;;10340725;28;20069;-70
2023/10/23 13:48:22;;;;;;;3.53;1.40;;;;;;;;;;10339233;28;20431;-72
2023/10/23 13:53:26;;;;;;;3.60;1.70;;;;;;;;;;10340497;28;20056;-70
2023/10/23 13:58:28;;;;;;;3.33;1.60;;;;;;;;;;10343842;28;20050;-71
2023/10/23 14:03:31;;;;;;;2.60;1.43;;;;;;;;;;10337010;28;20053;-69
2023/10/23 14:08:35;;;;;;;4.70;1.67;;;;;;;;;;10339503;28;20548;-70
2023/10/23 14:13:58;;;;;;;5.85;1.70;;;;;;;;;;10344414;28;20045;-72
2023/10/23 14:19:01;;;;;;;3.08;1.70;;;;;;;;;;10348945;28;20049;-72
2023/10/23 14:24:05;;;;;;;3.47;1.40;;;;;;;;;;10342696;28;20053;-70
2023/10/23 14:29:08;;;;;;;2.03;1.60;;;;;;;;;;10340493;28;20049;-70
2023/10/23 14:34:11;;;;;;;3.35;1.70;;;;;;;;;;10339892;28;20145;-71
2023/10/23 14:39:15;;;;;;;3.33;1.60;;;;;;;;;;10337190;28;20045;-70
2023/10/23 14:44:17;;;;;;;3.17;1.45;;;;;;;;;;10330217;28;20044;-73
2023/10/23 14:49:21;;;;;;;6.47;1.77;;;;;;;;;;10336051;28;20050;-71
2023/10/23 14:54:25;;;;;;;2.55;1.50;;;;;;;;;;10337966;28;20056;-73
2023/10/23 14:59:28;;;;;;;5.72;1.85;;;;;;;;;;10339550;28;20535;-72
2023/10/23 15:04:30;;;;;;;4.05;1.58;;;;;;;;;;10337391;28;20061;-71
2023/10/23 15:09:39;;;;;;;5.00;1.70;;;;;;;;;;10331489;28;20050;-70
2023/10/23 15:14:42;;;;;;;2.78;1.52;;;;;;;;;;10335355;28;20140;-71
2023/10/23 15:19:45;;;;;;;2.40;1.50;;;;;;;;;;10343815;28;20073;-70
2023/10/23 15:24:49;;;;;;;3.30;1.50;;;;;;;;;;10340117;28;20645;-71
2023/10/23 15:29:53;;;;;;;2.35;1.42;;;;;;;;;;10346513;28;20038;-69
2023/10/23 15:34:55;;;;;;;2.22;1.48;;;;;;;;;;10334725;28;20176;-70
2023/10/23 15:39:59;;;;;;;2.15;1.40;;;;;;;;;;10337561;28;20065;-69
2023/10/23 15:45:02;;;;;;;3.05;1.88;;;;;;;;;;10342317;28;20050;-69
2023/10/23 15:50:05;;;;;;;2.90;1.83;;;;;;;;;;10339475;28;20049;-70
2023/10/23 15:55:09;;;;;;;3.77;1.80;;;;;;;;;;10336423;28;20052;-70
2023/10/23 16:00:14;;;;;;;3.47;2.42;;;;;;;;;;10345574;28;20317;-71
2023/10/23 16:05:16;;;;;;;5.28;2.15;;;;;;;;;;10334982;28;20050;-69
2023/10/23 16:10:20;;;;;;;4.95;2.15;;;;;;;;;;10333592;28;20068;-68
2023/10/23 16:15:27;;;;;;;3.53;2.08;;;;;;;;;;10340673;28;20562;-72
2023/10/23 16:20:29;;;;;;;6.95;2.25;;;;;;;;;;10339863;28;20141;-70
2023/10/23 16:25:36;;;;;;;4.13;2.28;;;;;;;;;;10344701;28;20631;-69
2023/10/23 16:30:40;;;;;;;6.60;2.53;;;;;;;;;;10345435;28;20677;-74
2023/10/23 16:35:42;;;;;;;3.95;2.50;;;;;;;;;;10345120;28;20061;-75
2023/10/23 16:40:47;;;;;;;5.32;2.53;;;;;;;;;;10344288;28;20487;-71
2023/10/23 16:45:50;;;;;;;;;;;;;;;;;;10343179;28;20591;-71
2023/10/23 16:50:52;;;;;;;8.55;2.92;;;;;;;;;;10344379;28;19929;-70
2023/10/23 16:55:58;;;;;;;3.85;2.08;;;;;;;;;;10339255;28;20053;-70
2023/10/23 17:01:04;;;;;;;5.70;2.95;;;;;;;;;;10341546;28;20038;-70
2023/10/23 17:06:07;;;;;;;4.88;2.70;;;;;;;;;;10341347;28;20060;-69
2023/10/23 17:11:11;;;;;;;8.07;3.20;;;;;;;;;;10334278;28;20030;-70
2023/10/23 17:16:14;;;;;;;8.38;3.00;;;;;;;;;;10343008;28;20485;-70
2023/10/23 17:21:16;;;;;;;6.72;3.70;;;;;;;;;;10347752;28;20120;-70
2023/10/23 17:26:20;;;;;;;9.75;3.55;;;;;;;;;;10344801;28;20590;-69
2023/10/23 17:31:23;;;;;;;8.25;3.35;;;;;;;;;;10344539;28;20034;-72
2023/10/23 17:36:28;;;;;;;6.53;3.27;;;;;;;;;;10343983;28;20149;-69
2023/10/23 17:41:32;;;;;;;6.07;3.47;;;;;;;;;;10347269;28;20050;-70
2023/10/23 17:46:36;;;;;;;;;;;;;;;;;;10346720;28;20075;-70
2023/10/23 17:51:38;;;;;;;5.72;2.88;;;;;;;;;;10337861;28;20558;-69
2023/10/23 17:56:42;;;;;;;6.63;3.80;;;;;;;;;;10341212;28;20040;-70
2023/10/23 18:01:45;;;;;;;7.88;3.63;;;;;;;;;;10335611;28;20610;-72
2023/10/23 18:06:48;;;;;;;6.85;3.60;;;;;;;;;;10342873;28;20046;-72
2023/10/23 18:11:52;;;;;;;8.85;3.58;;;;;;;;;;10343813;28;20053;-71
2023/10/23 18:16:54;;;;;;;;;;;;;;;;;;10347609;28;20054;-71
2023/10/23 18:21:57;;;;;;;7.38;3.47;;;;;;;;;;10343771;28;20295;-70
2023/10/23 18:27:01;;;;;;;7.90;3.60;;;;;;;;;;10340328;28;20053;-70
2023/10/23 18:32:03;;;;;;;9.38;3.85;;;;;;;;;;10340651;28;20045;-70
2023/10/23 18:37:06;;;;;;;5.78;3.72;;;;;;;;;;10339559;28;20140;-71
2023/10/23 18:42:10;;;;;;;6.20;3.13;;;;;;;;;;10336318;28;20108;-70
2023/10/23 18:47:13;;;;;;;9.10;3.90;;;;;;;;;;10341980;28;20045;-69
2023/10/23 18:52:19;;;;;;;6.82;3.42;;;;;;;;;;10358785;28;20771;-72
2023/10/23 18:57:23;;;;;;;5.57;3.20;;;;;;;;;;10354346;28;20056;-70
2023/10/23 19:02:25;;;;;;;;;;;;;;;;;;10355349;28;20133;-71
2023/10/23 19:07:31;;;;;;;7.03;3.42;;;;;;;;;;10365401;28;19960;-70
2023/10/23 19:12:36;;;;;;;7.30;3.40;;;;;;;;;;10356731;28;20085;-69
2023/10/23 19:17:38;;;;;;;;;;;;;;;;;;10363813;28;20490;-69
2023/10/23 19:22:42;;;;;;;7.88;3.85;;;;;;;;;;10359518;28;20087;-69
2023/10/23 19:27:46;;;;;;;8.98;4.30;;;;;;;;;;10360084;28;20496;-69
2023/10/23 19:32:49;;;;;;;;;;;;;;;;;;10354325;28;20077;-70
2023/10/23 19:37:52;;;;;;;9.55;3.67;;;;;;;;;;10354378;28;19922;-70
2023/10/23 19:42:58;;;;;;;10.88;4.15;;;;;;;;;;10361258;28;20042;-70
2023/10/23 19:48:01;;;;;;;8.15;4.50;;;;;;;;;;10357698;28;20077;-71
2023/10/23 19:53:04;;;;;;;7.50;3.95;;;;;;;;;;10359748;28;20468;-69
2023/10/23 19:58:08;;;;;;;7.00;4.30;;;;;;;;;;10361347;28;20131;-71
2023/10/23 20:03:10;;;;;;;6.53;4.03;;;;;;;;;;10361116;28;20046;-72
2023/10/23 20:08:13;;;;;;;8.10;4.38;;;;;;;;;;10364383;28;20129;-73
2023/10/23 20:13:17;;;;;;;8.05;4.30;;;;;;;;;;10363051;28;20116;-71
2023/10/23 20:18:20;;;;;;;8.10;4.22;;;;;;;;;;10365347;28;20111;-71
2023/10/23 20:23:23;;;;;;;8.10;3.90;;;;;;;;;;10365250;28;20073;-72
2023/10/23 20:28:27;;;;;;;8.73;4.18;;;;;;;;;;10367700;28;20073;-70
2023/10/23 20:33:30;;;;;;;;;;;;;;;;;;10361116;28;20046;-69
2023/10/23 20:38:32;;;;;;;9.38;4.30;;;;;;;;;;10351011;28;19922;-69
2023/10/23 20:43:37;;;;;;;7.57;4.27;;;;;;;;;;10344656;28;20088;-70
2023/10/23 20:48:39;;;;;;;8.60;4.20;;;;;;;;;;10342912;28;20119;-69
2023/10/23 20:53:42;;;;;;;8.65;4.25;;;;;;;;;;10331450;28;20042;-71
2023/10/23 20:58:46;;;;;;;8.43;4.15;;;;;;;;;;10350586;28;20356;-72
2023/10/23 21:03:49;;;;;;;7.30;4.32;;;;;;;;;;10339603;28;20038;-71
2023/10/23 21:08:52;;;;;;;10.23;4.80;;;;;;;;;;10345846;28;20553;-70
2023/10/23 21:13:57;;;;;;;7.10;4.20;;;;;;;;;;10344308;28;20525;-74
2023/10/23 21:19:02;;;;;;;7.88;4.05;;;;;;;;;;10337785;28;20383;-70
2023/10/23 21:24:06;;;;;;;8.10;4.20;;;;;;;;;;10341862;28;20779;-70
2023/10/23 21:29:19;;;;;;;7.95;4.57;;;;;;;;;;10336521;28;20490;-69
2023/10/23 21:34:22;;;;;;;8.73;4.57;;;;;;;;;;10334142;28;20133;-70
2023/10/23 21:39:25;;;;;;;8.80;4.45;;;;;;;;;;10337513;28;20056;-70
2023/10/23 21:44:31;;;;;;;9.30;4.40;;;;;;;;;;10349663;28;20081;-70
2023/10/23 21:49:34;;;;;;;;;;;;;;;;;;10346759;28;20056;-69
2023/10/23 21:54:37;;;;;;;10.30;3.88;;;;;;;;;;10342283;28;19932;-70
2023/10/23 21:59:41;;;;;;;8.30;4.32;;;;;;;;;;10343753;28;20038;-70
2023/10/23 22:04:44;;;;;;;8.98;4.28;;;;;;;;;;10345947;28;20165;-69
2023/10/23 22:09:47;;;;;;;6.50;3.30;;;;;;;;;;10340351;28;20041;-69
2023/10/23 22:14:51;;;;;;;7.28;3.92;;;;;;;;;;10347060;28;20073;-70
2023/10/23 22:19:54;;;;;;;12.07;4.35;;;;;;;;;;10343003;28;20123;-69
2023/10/23 22:24:57;;;;;;;7.22;4.03;;;;;;;;;;10344388;28;20056;-70
2023/10/23 22:30:04;;;;;;;12.80;3.92;;;;;;;;;;10338543;28;20038;-70
2023/10/23 22:35:07;;;;;;;7.13;3.95;;;;;;;;;;10341946;28;20101;-71
2023/10/23 22:40:12;;;;;;;9.18;4.18;;;;;;;;;;10344181;28;20033;-68
2023/10/23 22:45:16;;;;;;;10.27;4.00;;;;;;;;;;10334929;28;20040;-69
2023/10/23 22:50:18;;;;;;;;;;;;;;;;;;10340653;28;20042;-70
2023/10/23 22:55:22;;;;;;;8.10;4.10;;;;;;;;;;10343310;28;19933;-71
2023/10/23 23:00:26;;;;;;;8.05;4.25;;;;;;;;;;10341731;28;20042;-69
2023/10/23 23:05:29;;;;;;;8.98;4.13;;;;;;;;;;10336648;28;20556;-68
2023/10/23 23:10:32;;;;;;;8.43;4.78;;;;;;;;;;10341073;28;20044;-70
2023/10/23 23:15:37;;;;;;;11.90;4.73;;;;;;;;;;10341794;28;20165;-68
2023/10/23 23:20:39;;;;;;;9.95;4.78;;;;;;;;;;10339443;28;20046;-71
2023/10/23 23:25:42;;;;;;;7.97;4.75;;;;;;;;;;10335727;28;20133;-71
2023/10/23 23:30:46;;;;;;;12.40;4.82;;;;;;;;;;10342292;28;20988;-69
2023/10/23 23:35:49;;;;;;;9.30;5.00;;;;;;;;;;10340510;28;20069;-69
2023/10/23 23:40:51;;;;;;;10.18;4.72;;;;;;;;;;10338933;28;20042;-70
2023/10/23 23:45:57;;;;;;;9.10;4.63;;;;;;;;;;10340415;28;20041;-70
2023/10/23 23:50:59;;;;;;;9.60;4.78;;;;;;;;;;10334675;28;20479;-68
2023/10/23 23:56:02;;;;;;;10.27;4.97;;;;;;;;;;10342288;28;20049;-69
